createdAt,value
2019-05-11T00:02:27.101Z,6.20
2019-05-11T00:04:55.486Z,5.40
2019-05-11T00:07:24.008Z,12.60
2019-05-11T00:09:58.227Z,5.57
2019-05-11T00:12:22.797Z,6.50
2019-05-11T00:14:51.472Z,7.53
2019-05-11T00:17:20.141Z,8.83
2019-05-11T00:19:48.842Z,6.93
2019-05-11T00:22:17.283Z,7.13
2019-05-11T00:24:45.987Z,6.57
2019-05-11T00:27:14.702Z,5.90
2019-05-11T00:29:43.284Z,7.13
2019-05-11T00:32:12.557Z,6.83
2019-05-11T00:34:40.981Z,6.87
2019-05-11T00:37:09.833Z,12.83
2019-05-11T00:39:38.288Z,11.77
2019-05-11T00:42:07.700Z,9.43
2019-05-11T00:44:36.444Z,7.90
2019-05-11T00:47:04.849Z,7.03
2019-05-11T00:49:33.327Z,9.70
2019-05-11T00:52:01.767Z,8.17
2019-05-11T00:54:30.484Z,9.53
2019-05-11T00:56:59.505Z,7.37
2019-05-11T00:59:27.979Z,7.90
2019-05-11T01:01:56.776Z,9.43
2019-05-11T01:04:25.195Z,7.60
2019-05-11T01:06:53.641Z,8.60
2019-05-11T01:09:22.261Z,7.00
2019-05-11T01:11:51.035Z,7.40
2019-05-11T01:14:19.798Z,9.00
2019-05-11T01:16:48.609Z,7.70
2019-05-11T01:19:17.282Z,6.93
2019-05-11T01:21:45.910Z,6.60
2019-05-11T01:24:14.321Z,6.80
2019-05-11T01:26:42.755Z,7.93
2019-05-11T01:29:11.215Z,6.80
2019-05-11T01:31:39.627Z,6.30
2019-05-11T01:34:08.286Z,6.30
2019-05-11T01:36:36.742Z,9.67
2019-05-11T01:39:06.881Z,7.60
2019-05-11T01:41:35.589Z,8.60
2019-05-11T01:44:04.095Z,6.63
2019-05-11T01:46:32.771Z,6.33
2019-05-11T01:49:01.414Z,7.43
2019-05-11T01:51:29.886Z,6.47
2019-05-11T01:53:58.658Z,7.03
2019-05-11T01:56:27.061Z,11.97
2019-05-11T01:58:55.670Z,8.90
2019-05-11T02:01:24.096Z,10.77
2019-05-11T02:03:52.496Z,9.27
2019-05-11T02:06:21.474Z,12.03
2019-05-11T02:08:50.803Z,11.80
2019-05-11T02:11:19.221Z,11.40
2019-05-11T02:13:47.682Z,9.50
2019-05-11T02:16:16.164Z,8.63
2019-05-11T02:18:44.637Z,9.73
2019-05-11T02:21:13.410Z,8.63
2019-05-11T02:23:41.907Z,8.23
2019-05-11T02:26:10.620Z,15.30
2019-05-11T02:28:39.313Z,8.80
2019-05-11T02:31:08.318Z,9.00
2019-05-11T02:33:36.773Z,7.60
2019-05-11T02:36:06.772Z,8.07
2019-05-11T02:38:35.478Z,7.10
2019-05-11T02:41:06.107Z,7.90
2019-05-11T02:43:34.623Z,8.63
2019-05-11T02:46:03.283Z,14.30
2019-05-11T02:48:31.980Z,10.13
2019-05-11T02:51:00.915Z,8.90
2019-05-11T02:53:30.633Z,12.07
2019-05-11T02:56:01.322Z,10.50
2019-05-11T02:58:30.016Z,12.40
2019-05-11T03:00:58.417Z,10.20
2019-05-11T03:03:26.933Z,12.57
2019-05-11T03:05:55.554Z,10.50
2019-05-11T03:08:25.239Z,10.83
2019-05-11T03:10:53.959Z,15.40
2019-05-11T03:13:23.203Z,12.80
2019-05-11T03:15:52.152Z,12.80
2019-05-11T03:18:20.576Z,18.07
2019-05-11T03:20:49.051Z,15.30
2019-05-11T03:23:17.447Z,18.90
2019-05-11T03:25:46.206Z,15.27
2019-05-11T03:28:14.645Z,15.07
2019-05-11T03:30:43.343Z,18.07
2019-05-11T03:33:11.773Z,16.43
2019-05-11T03:35:40.545Z,16.57
2019-05-11T03:38:09.234Z,17.63
2019-05-11T03:40:37.637Z,14.00
2019-05-11T03:43:06.281Z,14.43
2019-05-11T03:45:35.019Z,15.70
2019-05-11T03:48:03.729Z,19.07
2019-05-11T03:50:32.237Z,18.13
2019-05-11T03:53:00.654Z,14.20
2019-05-11T03:55:29.371Z,17.90
2019-05-11T03:57:58.055Z,15.10
2019-05-11T04:00:26.835Z,15.90
2019-05-11T04:02:55.270Z,15.93
2019-05-11T04:05:23.709Z,13.30
2019-05-11T04:07:52.132Z,15.23
2019-05-11T04:10:24.913Z,16.43
2019-05-11T04:12:50.751Z,20.20
2019-05-11T04:15:19.413Z,17.20
2019-05-11T04:17:47.833Z,18.23
2019-05-11T04:20:16.549Z,18.17
2019-05-11T04:22:44.977Z,21.00
2019-05-11T04:25:13.674Z,19.97
2019-05-11T04:27:42.454Z,20.73
2019-05-11T04:30:11.310Z,22.07
2019-05-11T04:32:39.745Z,20.23
2019-05-11T04:35:08.425Z,17.37
2019-05-11T04:37:37.096Z,17.33
2019-05-11T04:40:07.071Z,16.50
2019-05-11T04:42:53.449Z,18.17
2019-05-11T04:45:07.882Z,16.60
2019-05-11T04:47:36.448Z,16.30
2019-05-11T04:50:08.625Z,16.30
2019-05-11T04:52:37.631Z,17.73
2019-05-11T04:55:06.891Z,19.30
2019-05-11T04:57:36.104Z,16.90
2019-05-11T05:00:07.318Z,16.67
2019-05-11T05:02:35.917Z,16.93
2019-05-11T05:05:05.593Z,18.43
2019-05-11T05:07:34.038Z,18.93
2019-05-11T05:10:02.617Z,16.80
2019-05-11T05:12:31.087Z,19.93
2019-05-11T05:14:59.500Z,18.00
2019-05-11T05:17:27.911Z,14.87
2019-05-11T05:19:56.634Z,15.80
2019-05-11T05:22:28.085Z,20.27
2019-05-11T05:24:56.432Z,14.27
2019-05-11T05:27:24.951Z,15.03
2019-05-11T05:29:53.615Z,16.43
2019-05-11T05:32:22.028Z,15.13
2019-05-11T05:34:50.790Z,13.80
2019-05-11T05:37:19.215Z,14.10
2019-05-11T05:39:47.633Z,11.63
2019-05-11T05:42:16.658Z,12.23
2019-05-11T05:44:45.239Z,13.13
2019-05-11T05:47:13.918Z,11.27
2019-05-11T05:49:42.580Z,10.50
2019-05-11T05:52:11.328Z,10.50
2019-05-11T05:54:39.906Z,11.50
2019-05-11T05:57:08.612Z,11.20
2019-05-11T05:59:37.281Z,13.70
2019-05-11T06:02:05.690Z,9.70
2019-05-11T06:04:34.456Z,14.57
2019-05-11T06:07:02.863Z,9.13
2019-05-11T06:09:31.527Z,11.43
2019-05-11T06:11:59.945Z,9.87
2019-05-11T06:14:28.600Z,9.97
2019-05-11T06:16:57.017Z,9.80
2019-05-11T06:19:25.788Z,12.63
2019-05-11T06:21:54.265Z,11.20
2019-05-11T06:24:22.766Z,10.37
2019-05-11T06:26:51.307Z,12.27
2019-05-11T06:29:21.872Z,11.27
2019-05-11T06:31:50.757Z,11.37
2019-05-11T06:34:19.558Z,10.50
2019-05-11T06:36:47.973Z,8.97
2019-05-11T06:39:16.745Z,9.03
2019-05-11T06:41:45.554Z,9.63
2019-05-11T06:44:14.359Z,10.90
2019-05-11T06:46:42.787Z,10.17
2019-05-11T06:49:11.233Z,12.07
2019-05-11T06:51:40.593Z,9.97
2019-05-11T06:54:10.925Z,9.63
2019-05-11T06:56:39.765Z,13.83
2019-05-11T06:59:08.623Z,8.60
2019-05-11T07:01:37.403Z,13.13
2019-05-11T07:04:06.194Z,11.43
2019-05-11T07:06:34.610Z,8.90
2019-05-11T07:09:04.668Z,8.67
2019-05-11T07:11:33.142Z,8.37
2019-05-11T07:14:18.670Z,8.03
2019-05-11T07:16:31.738Z,7.27
2019-05-11T07:19:00.982Z,11.23
2019-05-11T07:21:29.704Z,8.53
2019-05-11T07:23:58.135Z,8.23
2019-05-11T07:26:26.993Z,8.57
2019-05-11T07:28:55.652Z,9.90
2019-05-11T07:31:24.371Z,8.10
2019-05-11T07:33:53.198Z,7.50
2019-05-11T07:36:21.695Z,8.57
2019-05-11T07:38:50.166Z,6.90
2019-05-11T07:41:18.888Z,7.80
2019-05-11T07:43:48.478Z,7.03
2019-05-11T07:46:18.386Z,6.20
2019-05-11T07:48:47.990Z,7.13
2019-05-11T07:51:18.279Z,7.20
2019-05-11T07:53:48.604Z,9.13
2019-05-11T07:56:18.919Z,9.00
2019-05-11T07:58:48.093Z,9.33
2019-05-11T08:01:18.923Z,6.43
2019-05-11T08:03:48.307Z,5.70
2019-05-11T08:06:18.257Z,9.20
2019-05-11T08:08:48.988Z,7.10
2019-05-11T08:11:18.572Z,5.70
2019-05-11T08:13:48.129Z,6.30
2019-05-11T08:16:18.605Z,5.73
2019-05-11T08:18:48.127Z,6.17
2019-05-11T08:21:18.006Z,6.90
2019-05-11T08:23:48.328Z,7.27
2019-05-11T08:26:19.008Z,7.43
2019-05-11T08:28:48.591Z,13.40
2019-05-11T08:31:18.696Z,5.67
2019-05-11T08:33:48.596Z,5.63
2019-05-11T08:36:18.956Z,6.50
2019-05-11T08:38:48.320Z,5.83
2019-05-11T08:41:18.435Z,7.17
2019-05-11T08:43:48.039Z,6.27
2019-05-11T08:46:18.616Z,4.80
2019-05-11T08:48:47.916Z,6.83
2019-05-11T08:51:18.391Z,10.80
2019-05-11T08:53:48.081Z,8.87
2019-05-11T08:56:18.945Z,7.23
2019-05-11T08:58:49.188Z,6.87
2019-05-11T09:01:18.533Z,6.37
2019-05-11T09:03:48.048Z,5.13
2019-05-11T09:06:17.895Z,4.80
2019-05-11T09:08:49.120Z,5.67
2019-05-11T09:11:18.805Z,5.20
2019-05-11T09:13:48.808Z,4.63
2019-05-11T09:16:19.042Z,4.40
2019-05-11T09:18:48.236Z,4.73
2019-05-11T09:21:18.924Z,8.10
2019-05-11T09:23:48.765Z,5.87
2019-05-11T09:26:19.600Z,5.20
2019-05-11T09:28:50.411Z,4.67
2019-05-11T09:31:19.094Z,10.00
2019-05-11T09:33:48.214Z,3.70
2019-05-11T09:36:18.053Z,3.80
2019-05-11T09:38:49.019Z,4.07
2019-05-11T09:41:18.090Z,3.03
2019-05-11T09:43:48.381Z,3.23
2019-05-11T09:46:18.872Z,1.93
2019-05-11T09:48:48.460Z,2.00
2019-05-11T09:51:18.370Z,4.20
2019-05-11T09:53:48.353Z,4.43
2019-05-11T09:56:18.518Z,1.97
2019-05-11T09:58:47.983Z,2.43
2019-05-11T10:01:18.340Z,2.00
2019-05-11T10:03:48.127Z,2.20
2019-05-11T10:06:18.941Z,1.97
2019-05-11T10:08:48.776Z,7.60
2019-05-11T10:11:19.866Z,2.30
2019-05-11T10:13:48.414Z,2.13
2019-05-11T10:16:17.831Z,1.63
2019-05-11T10:18:49.128Z,2.03
2019-05-11T10:21:18.848Z,2.50
2019-05-11T10:23:49.054Z,2.10
2019-05-11T10:26:18.785Z,1.80
2019-05-11T10:28:48.358Z,2.13
2019-05-11T10:31:18.100Z,1.93
2019-05-11T10:33:48.953Z,1.63
2019-05-11T10:36:18.808Z,3.43
2019-05-11T10:38:48.768Z,1.83
2019-05-11T10:41:18.342Z,1.80
2019-05-11T10:43:48.941Z,2.10
2019-05-11T10:46:23.095Z,1.43
2019-05-11T10:48:48.391Z,1.77
2019-05-11T10:51:18.396Z,1.40
2019-05-11T10:53:51.247Z,1.90
2019-05-11T10:56:17.983Z,4.00
2019-05-11T10:58:48.227Z,1.50
2019-05-11T11:01:18.242Z,2.03
2019-05-11T11:03:48.357Z,3.00
2019-05-11T11:06:18.898Z,2.10
2019-05-11T11:08:48.623Z,2.80
2019-05-11T11:11:18.442Z,1.90
2019-05-11T11:13:47.969Z,1.97
2019-05-11T11:16:32.790Z,1.30
2019-05-11T11:18:48.667Z,1.47
2019-05-11T11:21:22.596Z,1.37
2019-05-11T11:23:48.906Z,2.23
2019-05-11T11:26:18.738Z,1.47
2019-05-11T11:28:47.705Z,1.43
2019-05-11T11:31:18.679Z,1.57
2019-05-11T11:33:48.967Z,1.50
2019-05-11T11:36:17.895Z,1.70
2019-05-11T11:38:47.823Z,1.30
2019-05-11T11:41:18.474Z,1.80
2019-05-11T11:43:48.271Z,2.17
2019-05-11T11:46:18.805Z,1.57
2019-05-11T11:48:48.963Z,3.20
2019-05-11T11:51:18.728Z,1.60
2019-05-11T11:53:48.037Z,1.73
2019-05-11T11:56:18.863Z,1.37
2019-05-11T11:58:48.736Z,1.43
2019-05-11T12:01:19.244Z,1.33
2019-05-11T12:03:49.014Z,1.00
2019-05-11T12:06:18.399Z,2.10
2019-05-11T12:08:49.798Z,3.37
2019-05-11T12:11:18.739Z,3.33
2019-05-11T12:13:47.801Z,1.60
2019-05-11T12:16:18.075Z,2.13
2019-05-11T12:18:48.689Z,2.33
2019-05-11T12:21:18.636Z,1.67
2019-05-11T12:23:48.581Z,2.20
2019-05-11T12:26:17.962Z,1.73
2019-05-11T12:28:49.042Z,1.60
2019-05-11T12:31:18.401Z,2.23
2019-05-11T12:33:48.758Z,1.97
2019-05-11T12:36:18.856Z,1.90
2019-05-11T12:38:48.788Z,2.10
2019-05-11T12:41:19.116Z,2.00
2019-05-11T12:43:49.087Z,5.40
2019-05-11T12:46:18.851Z,2.60
2019-05-11T12:48:48.556Z,2.10
2019-05-11T12:51:18.732Z,2.43
2019-05-11T12:53:47.873Z,3.43
2019-05-11T12:56:18.895Z,1.87
2019-05-11T12:58:49.193Z,3.03
2019-05-11T13:01:18.815Z,1.73
2019-05-11T13:03:49.191Z,2.43
2019-05-11T13:06:19.076Z,2.27
2019-05-11T13:08:48.698Z,2.67
2019-05-11T13:11:18.671Z,2.40
2019-05-11T13:13:48.394Z,2.20
2019-05-11T13:16:18.515Z,2.37
2019-05-11T13:18:48.775Z,2.47
2019-05-11T13:21:18.270Z,2.77
2019-05-11T13:23:48.869Z,5.17
2019-05-11T13:26:17.982Z,2.80
2019-05-11T13:28:48.434Z,4.50
2019-05-11T13:31:18.698Z,2.20
2019-05-11T13:33:48.159Z,2.50
2019-05-11T13:36:18.642Z,5.63
2019-05-11T13:38:48.288Z,2.30
2019-05-11T13:41:18.913Z,3.00
2019-05-11T13:43:48.573Z,2.13
2019-05-11T13:46:18.014Z,3.13
2019-05-11T13:48:47.612Z,4.83
2019-05-11T13:51:18.346Z,2.67
2019-05-11T13:53:48.263Z,2.50
2019-05-11T13:56:18.335Z,2.37
2019-05-11T13:58:48.752Z,2.97
2019-05-11T14:01:18.595Z,2.47
2019-05-11T14:03:48.346Z,2.13
2019-05-11T14:06:18.403Z,2.20
2019-05-11T14:08:48.142Z,2.83
2019-05-11T14:11:18.173Z,3.17
2019-05-11T14:13:48.009Z,1.73
2019-05-11T14:16:18.566Z,2.00
2019-05-11T14:18:48.861Z,2.23
2019-05-11T14:21:18.490Z,5.37
2019-05-11T14:23:48.428Z,2.80
2019-05-11T14:26:19.092Z,2.40
2019-05-11T14:28:48.256Z,2.13
2019-05-11T14:31:18.944Z,2.10
2019-05-11T14:33:48.949Z,2.20
2019-05-11T14:36:18.407Z,2.60
2019-05-11T14:38:48.791Z,3.07
2019-05-11T14:41:18.200Z,4.37
2019-05-11T14:43:48.949Z,3.27
2019-05-11T14:46:18.148Z,4.10
2019-05-11T14:48:48.063Z,2.90
2019-05-11T14:51:18.165Z,4.70
2019-05-11T14:53:48.080Z,3.30
2019-05-11T14:56:19.102Z,3.47
2019-05-11T14:58:49.226Z,2.77
2019-05-11T15:01:18.389Z,2.90
2019-05-11T15:03:48.577Z,2.60
2019-05-11T15:06:18.944Z,4.20
2019-05-11T15:08:48.113Z,3.73
2019-05-11T15:11:19.019Z,3.20
2019-05-11T15:13:48.857Z,2.57
2019-05-11T15:16:18.747Z,2.90
2019-05-11T15:18:48.545Z,3.50
2019-05-11T15:21:18.841Z,2.80
2019-05-11T15:23:47.837Z,3.60
2019-05-11T15:26:18.740Z,1.87
2019-05-11T15:28:48.591Z,2.77
2019-05-11T15:31:22.233Z,5.30
2019-05-11T15:33:48.859Z,3.80
2019-05-11T15:36:19.413Z,3.80
2019-05-11T15:38:48.340Z,2.50
2019-05-11T15:41:17.678Z,2.83
2019-05-11T15:43:48.037Z,2.97
2019-05-11T15:46:19.510Z,3.43
2019-05-11T15:48:56.602Z,3.97
2019-05-11T15:51:18.743Z,3.80
2019-05-11T15:53:50.277Z,3.90
2019-05-11T15:56:19.048Z,4.53
2019-05-11T15:58:48.621Z,4.20
2019-05-11T16:01:18.682Z,5.20
2019-05-11T16:03:49.672Z,4.50
2019-05-11T16:06:18.621Z,4.00
2019-05-11T16:08:47.567Z,4.60
2019-05-11T16:11:17.981Z,4.30
2019-05-11T16:13:48.332Z,4.50
2019-05-11T16:16:16.443Z,4.43
2019-05-11T16:18:45.416Z,4.67
2019-05-11T16:21:13.820Z,3.93
2019-05-11T16:23:42.259Z,4.43
2019-05-11T16:26:11.038Z,3.83
2019-05-11T16:28:39.536Z,3.97
2019-05-11T16:31:09.132Z,3.23
2019-05-11T16:33:37.940Z,3.70
2019-05-11T16:36:09.060Z,4.50
2019-05-11T16:38:38.017Z,3.93
2019-05-11T16:41:09.138Z,4.50
2019-05-11T16:43:38.472Z,4.97
2019-05-11T16:46:08.640Z,4.67
2019-05-11T16:48:38.317Z,4.10
2019-05-11T16:51:08.616Z,4.70
2019-05-11T16:53:38.990Z,4.43
2019-05-11T16:56:09.574Z,4.60
2019-05-11T16:58:40.987Z,4.00
2019-05-11T17:01:08.967Z,5.33
2019-05-11T17:03:38.413Z,6.00
2019-05-11T17:06:08.388Z,4.47
2019-05-11T17:08:38.325Z,5.37
2019-05-11T17:11:08.263Z,7.20
2019-05-11T17:13:37.941Z,8.37
2019-05-11T17:16:08.584Z,9.83
2019-05-11T17:18:37.578Z,8.80
2019-05-11T17:21:07.840Z,8.67
2019-05-11T17:23:38.358Z,10.90
2019-05-11T17:26:08.753Z,9.20
2019-05-11T17:28:38.454Z,12.70
2019-05-11T17:31:08.196Z,13.03
2019-05-11T17:33:38.493Z,16.20
2019-05-11T17:36:08.505Z,12.63
2019-05-11T17:38:38.935Z,15.13
2019-05-11T17:41:08.474Z,15.47
2019-05-11T17:43:38.694Z,15.30
2019-05-11T17:46:08.021Z,16.87
2019-05-11T17:48:38.886Z,15.27
2019-05-11T17:51:20.472Z,16.17
2019-05-11T17:53:37.768Z,16.33
2019-05-11T17:56:06.453Z,15.73
2019-05-11T17:58:37.693Z,15.30
2019-05-11T18:01:05.246Z,13.70
2019-05-11T18:03:33.892Z,14.40
2019-05-11T18:06:02.321Z,13.20
2019-05-11T18:08:31.136Z,14.70
2019-05-11T18:10:59.833Z,11.67
2019-05-11T18:13:28.677Z,12.10
2019-05-11T18:15:57.939Z,15.10
2019-05-11T18:18:28.879Z,12.33
2019-05-11T18:20:57.877Z,8.57
2019-05-11T18:23:28.205Z,8.97
2019-05-11T18:25:57.319Z,7.93
2019-05-11T18:28:28.759Z,6.10
2019-05-11T18:30:58.234Z,6.20
2019-05-11T18:33:27.699Z,7.03
2019-05-11T18:35:58.308Z,5.43
2019-05-11T18:38:27.664Z,5.60
2019-05-11T18:40:57.989Z,5.70
2019-05-11T18:43:28.035Z,5.07
2019-05-11T18:45:58.115Z,5.63
2019-05-11T18:48:28.919Z,5.53
2019-05-11T18:50:59.008Z,6.63
2019-05-11T18:53:28.895Z,7.00
2019-05-11T18:55:59.093Z,6.87
2019-05-11T18:58:28.086Z,9.30
2019-05-11T19:00:56.650Z,8.13
2019-05-11T19:03:25.195Z,9.40
2019-05-11T19:05:53.737Z,6.83
2019-05-11T19:08:22.164Z,6.70
2019-05-11T19:10:51.089Z,5.80
2019-05-11T19:13:19.624Z,5.47
2019-05-11T19:15:48.854Z,7.93
2019-05-11T19:18:17.746Z,6.80
2019-05-11T19:20:49.197Z,6.47
2019-05-11T19:23:19.007Z,6.67
2019-05-11T19:25:48.096Z,8.00
2019-05-11T19:28:18.695Z,7.40
2019-05-11T19:30:48.818Z,6.40
2019-05-11T19:33:18.990Z,5.97
2019-05-11T19:35:48.144Z,6.63
2019-05-11T19:38:18.752Z,7.07
2019-05-11T19:40:48.411Z,9.37
2019-05-11T19:43:18.507Z,6.67
2019-05-11T19:45:48.688Z,8.00
2019-05-11T19:48:17.647Z,7.20
2019-05-11T19:51:02.659Z,6.93
2019-05-11T19:53:18.789Z,7.03
2019-05-11T19:55:47.930Z,7.10
2019-05-11T19:58:19.083Z,9.03
2019-05-11T20:00:48.848Z,8.43
2019-05-11T20:03:18.659Z,9.03
2019-05-11T20:05:48.531Z,8.73
2019-05-11T20:08:18.458Z,8.30
2019-05-11T20:10:48.646Z,9.97
2019-05-11T20:13:18.690Z,8.80
2019-05-11T20:15:48.502Z,8.33
2019-05-11T20:18:18.826Z,8.33
2019-05-11T20:20:48.056Z,9.00
2019-05-11T20:23:16.781Z,8.77
2019-05-11T20:25:47.660Z,7.70
2019-05-11T20:28:17.992Z,9.10
2019-05-11T20:30:48.099Z,9.80
2019-05-11T20:33:16.122Z,9.10
2019-05-11T20:35:44.532Z,8.93
2019-05-11T20:38:13.095Z,9.47
2019-05-11T20:40:42.117Z,14.57
2019-05-11T20:43:10.896Z,9.90
2019-05-11T20:45:39.327Z,9.87
2019-05-11T20:48:08.064Z,12.77
2019-05-11T20:50:37.925Z,11.73
2019-05-11T20:53:08.417Z,15.47
2019-05-11T20:55:37.658Z,12.43
2019-05-11T20:58:08.579Z,10.50
2019-05-11T21:00:38.356Z,11.07
2019-05-11T21:03:08.013Z,10.90
2019-05-11T21:05:37.013Z,12.00
2019-05-11T21:08:05.487Z,10.67
2019-05-11T21:10:34.370Z,13.50
2019-05-11T21:13:03.351Z,15.30
2019-05-11T21:15:32.291Z,15.90
2019-05-11T21:18:01.833Z,18.13
2019-05-11T21:20:31.029Z,12.40
2019-05-11T21:22:59.629Z,12.77
2019-05-11T21:25:28.892Z,12.87
2019-05-11T21:27:58.046Z,11.90
2019-05-11T21:30:26.696Z,17.43
2019-05-11T21:32:55.461Z,14.50
2019-05-11T21:35:24.112Z,14.10
2019-05-11T21:37:52.947Z,14.70
2019-05-11T21:40:21.535Z,21.73
2019-05-11T21:42:49.964Z,15.50
2019-05-11T21:45:18.916Z,14.93
2019-05-11T21:47:49.043Z,15.10
2019-05-11T21:50:19.031Z,13.03
2019-05-11T21:52:48.824Z,14.73
2019-05-11T21:55:17.334Z,17.73
2019-05-11T21:57:49.469Z,15.90
2019-05-11T22:00:18.699Z,12.10
2019-05-11T22:02:48.648Z,11.87
2019-05-11T22:05:20.405Z,13.57
2019-05-11T22:07:49.018Z,12.20
2019-05-11T22:10:17.968Z,16.17
2019-05-11T22:12:48.830Z,14.50
2019-05-11T22:15:17.064Z,15.23
2019-05-11T22:17:48.040Z,13.20
2019-05-11T22:20:18.363Z,13.13
2019-05-11T22:22:47.787Z,11.67
2019-05-11T22:25:18.310Z,12.03
2019-05-11T22:27:48.746Z,12.60
2019-05-11T22:30:18.521Z,12.40
2019-05-11T22:32:47.786Z,14.63
2019-05-11T22:35:18.358Z,15.53
2019-05-11T22:37:48.783Z,16.83
2019-05-11T22:40:18.898Z,16.57
2019-05-11T22:42:48.749Z,14.73
2019-05-11T22:45:18.623Z,15.97
2019-05-11T22:47:48.134Z,13.17
2019-05-11T22:50:18.690Z,17.77
2019-05-11T22:52:48.423Z,17.90
2019-05-11T22:55:18.913Z,13.47
2019-05-11T22:57:48.768Z,12.93
2019-05-11T23:00:20.775Z,13.53
2019-05-11T23:02:49.465Z,16.87
2019-05-11T23:05:17.921Z,20.63
2019-05-11T23:07:48.147Z,16.90
2019-05-11T23:10:17.732Z,15.70
2019-05-11T23:12:48.274Z,17.00
2019-05-11T23:15:18.567Z,15.87
2019-05-11T23:17:47.459Z,14.90
2019-05-11T23:20:17.279Z,17.47
2019-05-11T23:22:57.944Z,17.90
2019-05-11T23:25:19.837Z,14.43
2019-05-11T23:27:48.826Z,17.87
2019-05-11T23:30:19.915Z,15.67
2019-05-11T23:32:49.431Z,17.13
2019-05-11T23:35:18.842Z,20.43
2019-05-11T23:37:49.374Z,13.73
2019-05-11T23:40:21.613Z,18.03
2019-05-11T23:42:50.416Z,18.07
2019-05-11T23:45:19.418Z,15.00
2019-05-11T23:47:48.822Z,18.90
2019-05-11T23:50:19.441Z,13.43
2019-05-11T23:52:53.267Z,15.90
2019-05-11T23:55:19.471Z,18.33
2019-05-11T23:57:48.932Z,16.83
